首页
METAR-TAF:

METAR-TAF

机场 :

The Dalles, 俄勒冈州, 美国

纬度: 45-37-07N, 经度: 121-10-02W, 海拔: 75米

当前天气观测

该预报发布于24分钟前的00:53 UTC
风速17节,风向西转西北,有时为24节阵风
温度 19°C
湿度 37%
气压 1016 hPa
能見度: 16.1公里
天空无云

METAR: KDLS 010053Z AUTO 29017G24KT 10SM CLR 19/04 A3001 RMK AO2 SLP161 T01940044 $

时间: 18:17 (01:17 UTC)

预报

该预报发布于1小时和57分钟前的23:20 UTC
预报有效从01日的 00点(UTC)到 01日的 24点(UTC)
风速17节,风向西转西北,有时为26节阵风
能見度: 10公里
散云层高于20000英尺
从 01日的 0400点(UTC)
风速8节,风向西转西北
能見度: 10公里
多云层高于20000英尺
从 01日的 1800点(UTC)
风速16节,风向西北,有时为24节阵风
能見度: 10公里
天空无云

TAF: KDLS 312320Z 0100/0124 30017G26KT P6SM SCT200 FM010400 30008KT P6SM BKN200 FM011800 31016G24KT P6SM SKC

超过4000个机场的气象观测和天气预报(METAR&TAF报告)。

可查询的气象台以黄色和红色小点在地图上表示。

将鼠标移到小点上方,可查看气象台名称。

然后点击查看天气观测和预报。

如需切换地图:点击带黑十字的绿色按钮放大地图;点击带横线的绿色按钮缩小地图;或者点击绿色箭头查看邻近地区的地图。


METAR-TAF: